Time;durP1;ratioP1;P1;durP2;ratioP2;P2;SDS_P1;SDS_P2;PMS_P1;PMS_P2;Temp;Humidity;BMP_temperature;BMP_pressure;BME280_temperature;BME280_humidity;BME280_pressure;Samples;Min_cycle;Max_cycle;Signal;HPM_P1;HPM_P2
2023/03/19 00:01:14;;;;;;;2.85;2.65;;;;;;;;;;5099090;28;20048;-64
2023/03/19 00:03:40;;;;;;;3.45;3.15;;;;;;;;;;5097136;28;20067;-64
2023/03/19 00:06:06;;;;;;;2.47;2.28;;;;;;;;;;5094912;27;20076;-65
2023/03/19 00:08:32;;;;;;;3.17;2.88;;;;;;;;;;5114065;27;20151;-64
2023/03/19 00:10:59;;;;;;;3.58;3.28;;;;;;;;;;5146243;27;20107;-65
2023/03/19 00:13:25;;;;;;;3.70;3.38;;;;;;;;;;5145095;27;20042;-64
2023/03/19 00:15:51;;;;;;;4.30;3.95;;;;;;;;;;5133402;27;20122;-65
2023/03/19 00:18:17;;;;;;;4.25;3.95;;;;;;;;;;5138614;27;20053;-64
2023/03/19 00:20:43;;;;;;;3.38;3.08;;;;;;;;;;5131806;27;20424;-64
2023/03/19 00:23:09;;;;;;;2.60;2.50;;;;;;;;;;5131103;27;20064;-65
2023/03/19 00:25:35;;;;;;;2.92;2.67;;;;;;;;;;5135091;27;20072;-64
2023/03/19 00:28:01;;;;;;;2.28;2.15;;;;;;;;;;5132540;27;20031;-64
2023/03/19 00:30:28;;;;;;;3.65;3.30;;;;;;;;;;5131876;27;20039;-64
2023/03/19 00:32:54;;;;;;;3.10;2.90;;;;;;;;;;5137000;27;20039;-64
2023/03/19 00:35:20;;;;;;;4.00;3.70;;;;;;;;;;5129510;27;20079;-64
2023/03/19 00:37:46;;;;;;;4.63;4.25;;;;;;;;;;5113722;27;20054;-65
2023/03/19 00:40:12;;;;;;;5.45;4.97;;;;;;;;;;5132270;27;20049;-64
2023/03/19 00:42:38;;;;;;;5.22;4.82;;;;;;;;;;5131935;27;20047;-64
2023/03/19 00:45:05;;;;;;;4.78;4.38;;;;;;;;;;5132467;27;20043;-65
2023/03/19 00:47:31;;;;;;;4.35;4.00;;;;;;;;;;5133600;27;20043;-65
2023/03/19 00:49:57;;;;;;;3.85;3.45;;;;;;;;;;5130071;27;20039;-65
2023/03/19 00:52:23;;;;;;;3.90;3.60;;;;;;;;;;5132773;27;20034;-65
2023/03/19 00:54:49;;;;;;;3.58;3.28;;;;;;;;;;5132632;27;20043;-65
2023/03/19 00:57:15;;;;;;;3.35;3.05;;;;;;;;;;5131231;27;20437;-64
2023/03/19 00:59:41;;;;;;;3.40;3.10;;;;;;;;;;5134267;27;20042;-65
2023/03/19 01:02:07;;;;;;;3.72;3.42;;;;;;;;;;5130396;27;20512;-65
2023/03/19 01:04:32;;;;;;;3.40;3.20;;;;;;;;;;5139127;27;20153;-65
2023/03/19 01:06:59;;;;;;;3.30;3.00;;;;;;;;;;5133686;27;22191;-64
2023/03/19 01:09:25;;;;;;;3.75;3.45;;;;;;;;;;5137847;27;20058;-64
2023/03/19 01:11:51;;;;;;;3.03;2.83;;;;;;;;;;5133394;27;20070;-65
2023/03/19 01:14:17;;;;;;;3.65;3.25;;;;;;;;;;5133982;27;20636;-64
2023/03/19 01:16:43;;;;;;;4.20;3.80;;;;;;;;;;5133575;27;20043;-64
2023/03/19 01:19:09;;;;;;;5.97;4.00;;;;;;;;;;5135792;27;20041;-64
2023/03/19 01:21:35;;;;;;;4.72;4.30;;;;;;;;;;5136920;27;20043;-64
2023/03/19 01:24:02;;;;;;;5.00;4.50;;;;;;;;;;5136326;27;20793;-64
2023/03/19 01:26:28;;;;;;;4.32;3.92;;;;;;;;;;5125752;27;20519;-65
2023/03/19 01:28:54;;;;;;;4.40;4.05;;;;;;;;;;5134138;27;20046;-64
2023/03/19 01:31:20;;;;;;;4.55;4.10;;;;;;;;;;5132030;27;20047;-65
2023/03/19 01:33:46;;;;;;;4.75;4.30;;;;;;;;;;5133018;27;20061;-65
2023/03/19 01:36:12;;;;;;;5.80;5.20;;;;;;;;;;5133070;27;20043;-64
2023/03/19 01:38:38;;;;;;;5.30;4.80;;;;;;;;;;5133141;27;20038;-64
2023/03/19 01:41:05;;;;;;;4.22;3.85;;;;;;;;;;5130849;27;20498;-64
2023/03/19 01:43:31;;;;;;;3.83;3.53;;;;;;;;;;5130080;27;20047;-64
2023/03/19 01:45:57;;;;;;;3.40;3.10;;;;;;;;;;5124620;27;20123;-65
2023/03/19 01:48:27;;;;;;;3.47;3.17;;;;;;;;;;5126346;27;20034;-64
2023/03/19 01:50:54;;;;;;;2.88;2.67;;;;;;;;;;5124298;27;20085;-64
2023/03/19 01:53:22;;;;;;;3.90;3.60;;;;;;;;;;5124331;27;20475;-64
2023/03/19 01:55:48;;;;;;;4.93;4.53;;;;;;;;;;5123932;27;20046;-65
2023/03/19 01:58:14;;;;;;;5.13;4.63;;;;;;;;;;5124063;27;20494;-65
2023/03/19 02:00:41;;;;;;;4.80;4.45;;;;;;;;;;5129868;27;20702;-65
2023/03/19 02:03:07;;;;;;;5.68;4.50;;;;;;;;;;5131861;27;20114;-65
2023/03/19 02:05:34;;;;;;;4.22;3.83;;;;;;;;;;5126018;27;20047;-65
2023/03/19 02:08:02;;;;;;;4.68;4.13;;;;;;;;;;5123360;27;20058;-65
2023/03/19 02:10:29;;;;;;;3.53;3.22;;;;;;;;;;5113612;27;20104;-65
2023/03/19 02:12:55;;;;;;;3.92;3.63;;;;;;;;;;5130040;27;20050;-65
2023/03/19 02:15:21;;;;;;;3.20;2.90;;;;;;;;;;5126346;27;20050;-66
2023/03/19 02:17:47;;;;;;;3.13;2.92;;;;;;;;;;5131669;27;20050;-65
2023/03/19 02:20:13;;;;;;;2.40;2.00;;;;;;;;;;5125227;27;20070;-66
2023/03/19 02:22:42;;;;;;;2.65;2.45;;;;;;;;;;5133132;27;20086;-65
2023/03/19 02:25:15;;;;;;;2.70;2.50;;;;;;;;;;5124395;27;20039;-65
2023/03/19 02:27:41;;;;;;;2.25;2.15;;;;;;;;;;5127876;27;20047;-65
2023/03/19 02:30:42;;;;;;;1.70;1.60;;;;;;;;;;5123310;27;20039;-66
2023/03/19 02:33:12;;;;;;;2.38;2.17;;;;;;;;;;5002381;28;20045;-65
2023/03/19 02:35:38;;;;;;;2.03;1.92;;;;;;;;;;5105179;27;20283;-65
2023/03/19 02:38:04;;;;;;;2.25;2.05;;;;;;;;;;5132471;27;20150;-65
2023/03/19 02:40:33;;;;;;;1.60;1.50;;;;;;;;;;5130955;27;20047;-65
2023/03/19 02:42:59;;;;;;;1.75;1.65;;;;;;;;;;5131279;27;20256;-65
2023/03/19 02:45:30;;;;;;;1.83;1.73;;;;;;;;;;5125905;27;20104;-65
2023/03/19 02:47:56;;;;;;;2.60;2.40;;;;;;;;;;5123572;27;20497;-65
2023/03/19 02:50:22;;;;;;;2.88;2.42;;;;;;;;;;5130593;27;20039;-65
2023/03/19 02:52:48;;;;;;;2.10;1.98;;;;;;;;;;5125542;27;20053;-65
2023/03/19 02:55:17;;;;;;;1.63;1.52;;;;;;;;;;5124322;27;20039;-65
2023/03/19 02:57:43;;;;;;;2.05;1.95;;;;;;;;;;5124996;27;20051;-65
2023/03/19 03:00:09;;;;;;;2.42;2.22;;;;;;;;;;5125659;27;20118;-65
2023/03/19 03:02:35;;;;;;;2.78;2.58;;;;;;;;;;5131843;27;20050;-65
2023/03/19 03:05:01;;;;;;;1.98;1.77;;;;;;;;;;5123021;27;21376;-65
2023/03/19 03:07:27;;;;;;;1.67;1.58;;;;;;;;;;5131058;27;20035;-65
2023/03/19 03:09:54;;;;;;;1.65;1.55;;;;;;;;;;5124982;27;20389;-66
2023/03/19 03:12:20;;;;;;;1.73;1.63;;;;;;;;;;5126061;27;20124;-65
2023/03/19 03:14:46;;;;;;;2.75;2.55;;;;;;;;;;5132839;27;20049;-65
2023/03/19 03:17:12;;;;;;;2.70;2.50;;;;;;;;;;5131001;27;20039;-66
2023/03/19 03:19:38;;;;;;;3.28;2.97;;;;;;;;;;5133149;27;20494;-65
2023/03/19 03:22:04;;;;;;;3.22;2.80;;;;;;;;;;5110532;27;20056;-65
2023/03/19 03:24:30;;;;;;;2.80;2.60;;;;;;;;;;5133974;27;20521;-65
2023/03/19 03:26:56;;;;;;;2.88;2.67;;;;;;;;;;5132935;27;20058;-65
2023/03/19 03:29:22;;;;;;;3.38;3.08;;;;;;;;;;5128053;27;20714;-66
2023/03/19 03:31:48;;;;;;;3.22;3.03;;;;;;;;;;5128937;27;20139;-65
2023/03/19 03:34:14;;;;;;;3.47;3.17;;;;;;;;;;5126772;27;20035;-65
2023/03/19 03:36:41;;;;;;;3.20;2.88;;;;;;;;;;5136617;27;20087;-66
2023/03/19 03:39:07;;;;;;;3.10;2.90;;;;;;;;;;5131413;27;20477;-65
2023/03/19 03:41:33;;;;;;;3.55;3.25;;;;;;;;;;5131936;27;20043;-65
2023/03/19 03:43:59;;;;;;;3.95;3.25;;;;;;;;;;5126923;27;20130;-65
2023/03/19 03:46:25;;;;;;;3.95;3.65;;;;;;;;;;5129552;27;20122;-65
2023/03/19 03:48:51;;;;;;;5.78;3.30;;;;;;;;;;5125445;27;20080;-65
2023/03/19 03:51:18;;;;;;;3.45;3.15;;;;;;;;;;5131197;27;20076;-65
2023/03/19 03:53:44;;;;;;;3.55;2.97;;;;;;;;;;5134660;27;20154;-65
2023/03/19 03:56:10;;;;;;;3.05;2.78;;;;;;;;;;5131863;27;20554;-66
2023/03/19 03:58:36;;;;;;;3.15;2.88;;;;;;;;;;5126954;27;20058;-65
2023/03/19 04:01:02;;;;;;;2.78;2.50;;;;;;;;;;5125880;27;20042;-65
2023/03/19 04:03:28;;;;;;;3.08;2.35;;;;;;;;;;5132505;27;20089;-65
2023/03/19 04:05:55;;;;;;;2.35;2.15;;;;;;;;;;5129324;27;20046;-65
2023/03/19 04:08:21;;;;;;;2.28;2.10;;;;;;;;;;5126805;27;20418;-65
2023/03/19 04:10:47;;;;;;;2.10;1.90;;;;;;;;;;5127069;27;20054;-65
2023/03/19 04:13:13;;;;;;;2.28;2.08;;;;;;;;;;5126269;27;20122;-65
2023/03/19 04:15:42;;;;;;;2.00;1.80;;;;;;;;;;5126366;27;20476;-65
2023/03/19 04:18:08;;;;;;;1.65;1.55;;;;;;;;;;5126110;27;20066;-65
2023/03/19 04:20:34;;;;;;;1.50;1.40;;;;;;;;;;5131433;27;20078;-66
2023/03/19 04:23:00;;;;;;;1.65;1.55;;;;;;;;;;5126518;27;20055;-65
2023/03/19 04:25:27;;;;;;;2.10;1.90;;;;;;;;;;5127108;27;20039;-65
2023/03/19 04:27:53;;;;;;;1.33;1.02;;;;;;;;;;5133076;27;20043;-65
2023/03/19 04:30:19;;;;;;;1.73;1.23;;;;;;;;;;5130498;27;20039;-65
2023/03/19 04:32:46;;;;;;;1.30;1.20;;;;;;;;;;5127255;27;20442;-65
2023/03/19 04:35:12;;;;;;;1.13;1.02;;;;;;;;;;5129095;27;20549;-65
2023/03/19 04:37:39;;;;;;;1.25;1.15;;;;;;;;;;5135519;27;20039;-65
2023/03/19 04:40:05;;;;;;;1.25;1.15;;;;;;;;;;5134310;27;20038;-65
2023/03/19 04:42:31;;;;;;;1.10;1.00;;;;;;;;;;5135251;27;20093;-65
2023/03/19 04:44:57;;;;;;;0.90;0.90;;;;;;;;;;5134746;27;20043;-65
2023/03/19 04:47:23;;;;;;;1.02;0.95;;;;;;;;;;5136792;27;20049;-66
2023/03/19 04:49:50;;;;;;;1.27;1.17;;;;;;;;;;5136116;27;20401;-65
2023/03/19 04:52:16;;;;;;;1.13;1.10;;;;;;;;;;5135256;27;20039;-65
2023/03/19 04:54:42;;;;;;;1.38;1.27;;;;;;;;;;5136398;27;20512;-65
2023/03/19 04:57:08;;;;;;;1.67;1.58;;;;;;;;;;5131580;27;20035;-65
2023/03/19 04:59:34;;;;;;;1.17;1.08;;;;;;;;;;5135704;27;20458;-65
2023/03/19 05:02:00;;;;;;;0.98;0.88;;;;;;;;;;5134356;27;20055;-65
2023/03/19 05:04:26;;;;;;;1.17;1.08;;;;;;;;;;5134617;27;20058;-65
2023/03/19 05:06:52;;;;;;;0.80;0.80;;;;;;;;;;5129917;27;20079;-65
2023/03/19 05:09:18;;;;;;;0.75;0.75;;;;;;;;;;5128104;27;20546;-66
2023/03/19 05:11:45;;;;;;;1.25;1.15;;;;;;;;;;5125191;27;20035;-67
2023/03/19 05:14:11;;;;;;;0.80;0.80;;;;;;;;;;5107191;27;20084;-65
2023/03/19 05:16:37;;;;;;;1.20;1.10;;;;;;;;;;5134281;27;20093;-65
2023/03/19 05:19:03;;;;;;;1.52;1.10;;;;;;;;;;5123969;27;20082;-66
2023/03/19 05:21:29;;;;;;;0.60;0.60;;;;;;;;;;5125997;27;20043;-65
2023/03/19 05:23:56;;;;;;;0.80;0.80;;;;;;;;;;5134270;27;20686;-65
2023/03/19 05:26:22;;;;;;;0.88;0.80;;;;;;;;;;5133574;27;20532;-65
2023/03/19 05:28:48;;;;;;;1.33;1.20;;;;;;;;;;5134136;27;20613;-65
2023/03/19 05:31:14;;;;;;;0.50;0.50;;;;;;;;;;5131327;27;20043;-65
2023/03/19 05:33:40;;;;;;;0.80;0.80;;;;;;;;;;5133900;27;20074;-65
2023/03/19 05:36:06;;;;;;;1.13;1.10;;;;;;;;;;5134767;27;20042;-65
2023/03/19 05:38:32;;;;;;;0.80;0.80;;;;;;;;;;5133940;27;20039;-65
2023/03/19 05:41:03;;;;;;;0.85;0.85;;;;;;;;;;5136718;27;20054;-65
2023/03/19 05:43:29;;;;;;;1.10;1.00;;;;;;;;;;5138024;27;20038;-66
2023/03/19 05:45:55;;;;;;;0.80;0.80;;;;;;;;;;5134208;27;20450;-65
2023/03/19 05:48:22;;;;;;;0.80;0.80;;;;;;;;;;5133728;27;20064;-65
2023/03/19 05:50:48;;;;;;;0.80;0.80;;;;;;;;;;5134719;27;20129;-66
2023/03/19 05:53:14;;;;;;;0.70;0.70;;;;;;;;;;5136554;27;20126;-65
2023/03/19 05:55:40;;;;;;;1.27;1.17;;;;;;;;;;5132969;27;20055;-65
2023/03/19 05:58:06;;;;;;;1.27;1.17;;;;;;;;;;5126985;27;20077;-65
2023/03/19 06:00:32;;;;;;;1.00;0.85;;;;;;;;;;5134247;27;20100;-65
2023/03/19 06:02:58;;;;;;;1.67;1.58;;;;;;;;;;5133104;27;20046;-66
2023/03/19 06:05:24;;;;;;;1.23;1.13;;;;;;;;;;5134205;27;20454;-65
2023/03/19 06:07:50;;;;;;;1.20;1.10;;;;;;;;;;5115162;27;20050;-65
2023/03/19 06:10:17;;;;;;;1.27;1.17;;;;;;;;;;5133117;27;20076;-65
2023/03/19 06:12:43;;;;;;;1.00;1.00;;;;;;;;;;5130308;27;20077;-65
2023/03/19 06:15:09;;;;;;;1.33;1.23;;;;;;;;;;5129784;27;20091;-65
2023/03/19 06:17:36;;;;;;;1.17;1.08;;;;;;;;;;5130246;27;20077;-65
2023/03/19 06:20:02;;;;;;;1.17;1.05;;;;;;;;;;5133692;27;20067;-65
2023/03/19 06:22:28;;;;;;;1.20;1.10;;;;;;;;;;5132514;27;20725;-65
2023/03/19 06:24:54;;;;;;;0.65;0.65;;;;;;;;;;5132784;27;20042;-65
2023/03/19 06:27:20;;;;;;;1.80;1.10;;;;;;;;;;5132487;27;20058;-65
2023/03/19 06:29:46;;;;;;;1.30;1.20;;;;;;;;;;5134296;27;20430;-65
2023/03/19 06:32:12;;;;;;;1.92;1.73;;;;;;;;;;5133672;27;20039;-65
2023/03/19 06:34:38;;;;;;;1.42;1.33;;;;;;;;;;5134845;27;20043;-65
2023/03/19 06:37:05;;;;;;;1.55;1.33;;;;;;;;;;5131157;27;20095;-65
2023/03/19 06:39:31;;;;;;;1.20;1.08;;;;;;;;;;5132340;27;20043;-65
2023/03/19 06:41:57;;;;;;;1.10;1.00;;;;;;;;;;5133671;27;20034;-65
2023/03/19 06:44:24;;;;;;;1.65;1.40;;;;;;;;;;5132597;27;20143;-65
2023/03/19 06:46:50;;;;;;;1.58;1.40;;;;;;;;;;5133575;27;20095;-65
2023/03/19 06:49:16;;;;;;;2.00;1.80;;;;;;;;;;5130406;27;20042;-65
2023/03/19 06:51:42;;;;;;;2.97;2.78;;;;;;;;;;5132708;27;20064;-65
2023/03/19 06:54:08;;;;;;;2.83;2.53;;;;;;;;;;5132265;27;20515;-67
2023/03/19 06:56:34;;;;;;;3.10;2.80;;;;;;;;;;5132910;27;20046;-65
2023/03/19 06:59:01;;;;;;;2.60;2.40;;;;;;;;;;5112206;27;20057;-65
2023/03/19 07:01:27;;;;;;;3.08;2.88;;;;;;;;;;5131487;27;20051;-68
2023/03/19 07:03:54;;;;;;;3.08;2.80;;;;;;;;;;5131717;27;20098;-65
2023/03/19 07:06:20;;;;;;;3.35;2.97;;;;;;;;;;5133437;27;20047;-65
2023/03/19 07:08:46;;;;;;;2.85;2.63;;;;;;;;;;5077586;27;1052490;-65
2023/03/19 07:11:13;;;;;;;3.13;2.72;;;;;;;;;;5129093;27;20524;-65
2023/03/19 07:13:39;;;;;;;2.67;2.47;;;;;;;;;;5133786;27;20095;-65
2023/03/19 07:16:06;;;;;;;3.28;2.97;;;;;;;;;;5134274;27;20047;-65
2023/03/19 07:18:32;;;;;;;5.47;4.85;;;;;;;;;;5130514;27;20077;-65
2023/03/19 07:20:58;;;;;;;5.88;5.38;;;;;;;;;;5133423;27;20054;-65
2023/03/19 07:23:24;;;;;;;6.18;5.60;;;;;;;;;;5133162;27;20043;-65
2023/03/19 07:25:50;;;;;;;6.55;5.93;;;;;;;;;;5134602;27;20858;-65
2023/03/19 07:28:16;;;;;;;5.75;5.15;;;;;;;;;;5132661;27;20047;-65
2023/03/19 07:30:42;;;;;;;6.45;5.90;;;;;;;;;;5136072;27;20042;-65
2023/03/19 07:33:08;;;;;;;7.13;6.43;;;;;;;;;;5113533;27;20634;-66
2023/03/19 07:35:35;;;;;;;5.88;5.15;;;;;;;;;;5132141;27;20047;-64
2023/03/19 07:38:01;;;;;;;5.65;5.10;;;;;;;;;;5132767;27;20912;-65
2023/03/19 07:40:27;;;;;;;4.75;4.35;;;;;;;;;;5131981;27;20042;-65
2023/03/19 07:42:53;;;;;;;5.13;4.38;;;;;;;;;;5125098;27;20412;-65
2023/03/19 07:45:19;;;;;;;4.57;4.18;;;;;;;;;;5122946;27;20122;-65
2023/03/19 07:47:46;;;;;;;5.57;5.00;;;;;;;;;;5133565;27;20160;-65
2023/03/19 07:50:12;;;;;;;5.68;5.13;;;;;;;;;;5136053;27;20047;-65
2023/03/19 07:52:38;;;;;;;6.20;5.60;;;;;;;;;;5133399;27;20035;-65
2023/03/19 07:55:05;;;;;;;5.97;5.47;;;;;;;;;;5132855;27;20074;-66
2023/03/19 07:57:31;;;;;;;7.03;6.35;;;;;;;;;;5134159;27;20046;-65
2023/03/19 07:59:57;;;;;;;10.57;9.18;;;;;;;;;;5130205;27;20035;-65
2023/03/19 08:02:24;;;;;;;11.50;10.40;;;;;;;;;;5131298;27;20039;-65
2023/03/19 08:04:50;;;;;;;10.52;9.43;;;;;;;;;;5132433;27;20508;-65
2023/03/19 08:07:16;;;;;;;12.60;10.18;;;;;;;;;;5135129;27;20090;-65
2023/03/19 08:09:43;;;;;;;9.75;8.75;;;;;;;;;;5136676;27;20050;-65
2023/03/19 08:12:09;;;;;;;12.27;10.43;;;;;;;;;;5137835;27;20918;-65
2023/03/19 08:14:35;;;;;;;11.85;10.65;;;;;;;;;;5136790;27;20049;-65
2023/03/19 08:17:01;;;;;;;12.27;10.02;;;;;;;;;;5135125;27;20066;-65
2023/03/19 08:19:27;;;;;;;13.43;11.10;;;;;;;;;;5137495;27;20091;-65
2023/03/19 08:21:53;;;;;;;12.70;11.40;;;;;;;;;;5135103;27;20046;-65
2023/03/19 08:24:19;;;;;;;15.10;13.50;;;;;;;;;;5136465;27;20050;-65
2023/03/19 08:26:45;;;;;;;19.75;15.20;;;;;;;;;;5133588;27;20069;-65
2023/03/19 08:29:11;;;;;;;16.52;14.60;;;;;;;;;;5134770;27;20039;-65
2023/03/19 08:31:37;;;;;;;15.30;13.75;;;;;;;;;;5135517;27;20081;-65
2023/03/19 08:34:04;;;;;;;17.17;14.75;;;;;;;;;;5137458;27;20665;-65
2023/03/19 08:36:30;;;;;;;18.30;16.35;;;;;;;;;;5133585;27;20039;-65
2023/03/19 08:38:57;;;;;;;16.73;15.05;;;;;;;;;;5138651;27;20035;-65
2023/03/19 08:41:24;;;;;;;17.67;15.93;;;;;;;;;;5139730;27;20043;-66
2023/03/19 08:43:50;;;;;;;16.63;14.93;;;;;;;;;;5133128;27;20039;-65
2023/03/19 08:46:16;;;;;;;15.52;13.90;;;;;;;;;;5135918;27;20102;-65
2023/03/19 08:48:43;;;;;;;15.60;14.10;;;;;;;;;;5140089;27;20047;-65
2023/03/19 08:51:09;;;;;;;16.17;14.45;;;;;;;;;;5133089;27;20485;-65
2023/03/19 08:53:35;;;;;;;16.30;14.75;;;;;;;;;;5135493;27;20064;-65
2023/03/19 08:56:02;;;;;;;16.35;14.65;;;;;;;;;;5133595;27;20074;-66
2023/03/19 08:58:29;;;;;;;17.25;15.45;;;;;;;;;;5133643;27;20060;-65
2023/03/19 09:01:06;;;;;;;16.85;14.23;;;;;;;;;;5136797;27;20047;-65
2023/03/19 09:03:32;;;;;;;15.32;13.80;;;;;;;;;;5137557;27;20149;-65
2023/03/19 09:06:00;;;;;;;16.60;14.95;;;;;;;;;;5139026;27;20130;-65
2023/03/19 09:08:27;;;;;;;15.07;13.68;;;;;;;;;;5140825;27;20054;-67
2023/03/19 09:10:53;;;;;;;15.57;14.00;;;;;;;;;;5136837;27;20698;-65
2023/03/19 09:13:19;;;;;;;18.40;16.45;;;;;;;;;;5137591;27;20465;-65
2023/03/19 09:15:45;;;;;;;16.08;14.35;;;;;;;;;;5137578;27;20493;-65
2023/03/19 09:18:11;;;;;;;15.25;13.80;;;;;;;;;;5135760;27;20039;-65
2023/03/19 09:20:37;;;;;;;16.73;14.98;;;;;;;;;;5134331;27;20669;-65
2023/03/19 09:23:03;;;;;;;15.55;13.95;;;;;;;;;;5132133;27;20092;-65
2023/03/19 09:25:29;;;;;;;16.77;15.05;;;;;;;;;;5142828;27;20099;-65
2023/03/19 09:27:55;;;;;;;16.80;14.98;;;;;;;;;;5135905;27;20039;-65
2023/03/19 09:30:21;;;;;;;16.10;14.38;;;;;;;;;;5115729;27;20470;-65
2023/03/19 09:32:47;;;;;;;16.83;14.85;;;;;;;;;;5132681;27;20083;-65
2023/03/19 09:35:13;;;;;;;15.02;13.52;;;;;;;;;;5131297;27;20039;-65
2023/03/19 09:37:40;;;;;;;15.00;13.50;;;;;;;;;;5142594;27;20745;-65
2023/03/19 09:40:06;;;;;;;14.85;13.35;;;;;;;;;;5131914;27;20047;-65
2023/03/19 09:42:32;;;;;;;15.98;14.38;;;;;;;;;;5129661;27;20441;-65
2023/03/19 09:44:59;;;;;;;16.33;14.77;;;;;;;;;;5119976;27;20042;-65
2023/03/19 09:47:25;;;;;;;14.85;13.35;;;;;;;;;;5133833;27;20133;-65
2023/03/19 09:49:52;;;;;;;21.15;17.98;;;;;;;;;;5138261;27;20899;-66
2023/03/19 09:52:18;;;;;;;19.33;14.93;;;;;;;;;;5141579;27;20084;-65
2023/03/19 09:54:45;;;;;;;18.23;16.38;;;;;;;;;;5142016;27;20038;-65
2023/03/19 09:57:12;;;;;;;16.80;14.95;;;;;;;;;;5140152;27;20546;-66
2023/03/19 09:59:39;;;;;;;17.45;15.65;;;;;;;;;;5133881;27;20382;-66
2023/03/19 10:02:23;;;;;;;17.58;15.05;;;;;;;;;;5150873;27;20641;-66
2023/03/19 10:05:07;;;;;;;16.88;15.00;;;;;;;;;;5151566;27;20046;-66
2023/03/19 10:07:40;;;;;;;13.90;12.45;;;;;;;;;;5147572;27;20043;-66
2023/03/19 10:10:39;;;;;;;16.30;14.52;;;;;;;;;;5151915;27;20039;-66
2023/03/19 10:13:08;;;;;;;14.95;13.38;;;;;;;;;;5086024;27;20149;-66
2023/03/19 10:15:35;;;;;;;15.57;13.82;;;;;;;;;;5140973;27;20037;-66
2023/03/19 10:18:04;;;;;;;17.80;15.90;;;;;;;;;;5130558;27;20046;-66
2023/03/19 10:20:35;;;;;;;16.92;14.90;;;;;;;;;;5153856;27;20095;-66
2023/03/19 10:23:07;;;;;;;19.00;16.80;;;;;;;;;;5149151;27;20751;-66
2023/03/19 10:25:34;;;;;;;18.85;15.88;;;;;;;;;;5149906;27;20049;-66
2023/03/19 10:28:05;;;;;;;19.77;16.52;;;;;;;;;;5116101;27;20069;-66
2023/03/19 10:30:32;;;;;;;17.33;14.45;;;;;;;;;;5138437;27;20051;-66
2023/03/19 10:33:12;;;;;;;18.38;15.23;;;;;;;;;;5136497;27;20035;-65
2023/03/19 10:35:43;;;;;;;17.35;14.50;;;;;;;;;;5115592;27;20043;-65
2023/03/19 10:38:32;;;;;;;15.48;13.77;;;;;;;;;;5127866;27;20584;-65
2023/03/19 10:41:10;;;;;;;16.17;13.82;;;;;;;;;;5130465;27;20035;-66
2023/03/19 10:43:37;;;;;;;13.68;12.27;;;;;;;;;;5132939;27;20046;-65
2023/03/19 10:46:03;;;;;;;17.13;14.82;;;;;;;;;;5129962;27;20042;-65
2023/03/19 10:48:29;;;;;;;17.95;15.05;;;;;;;;;;5136092;27;20494;-65
2023/03/19 10:51:04;;;;;;;17.17;14.85;;;;;;;;;;5138172;27;20122;-65
2023/03/19 10:53:32;;;;;;;19.77;16.55;;;;;;;;;;5126318;27;20039;-65
2023/03/19 10:56:07;;;;;;;21.50;18.25;;;;;;;;;;5131923;27;20043;-65
2023/03/19 10:58:34;;;;;;;24.42;18.67;;;;;;;;;;5137299;27;20145;-65
2023/03/19 11:01:08;;;;;;;24.48;19.70;;;;;;;;;;5133243;27;20043;-65
2023/03/19 11:03:36;;;;;;;22.00;18.10;;;;;;;;;;5133578;27;20142;-65
2023/03/19 11:06:22;;;;;;;22.20;18.60;;;;;;;;;;5136351;27;20047;-65
2023/03/19 11:08:55;;;;;;;23.30;18.10;;;;;;;;;;5131090;27;20052;-65
2023/03/19 11:11:44;;;;;;;22.45;17.92;;;;;;;;;;5132634;27;20047;-65
2023/03/19 11:14:17;;;;;;;20.05;16.48;;;;;;;;;;5084552;27;20103;-65
2023/03/19 11:17:06;;;;;;;21.70;16.40;;;;;;;;;;5134847;27;20035;-65
2023/03/19 11:19:38;;;;;;;22.88;17.25;;;;;;;;;;5121490;27;20138;-65
2023/03/19 11:22:04;;;;;;;21.50;16.75;;;;;;;;;;5130890;27;20126;-65
2023/03/19 11:24:32;;;;;;;24.52;18.13;;;;;;;;;;5130580;27;20141;-65
2023/03/19 11:26:59;;;;;;;21.58;16.92;;;;;;;;;;5119965;27;20096;-65
2023/03/19 11:29:26;;;;;;;24.00;18.02;;;;;;;;;;5127164;27;20584;-65
2023/03/19 11:31:59;;;;;;;20.98;15.95;;;;;;;;;;5133261;27;20040;-65
2023/03/19 11:34:32;;;;;;;19.27;15.07;;;;;;;;;;5132716;27;20068;-65
2023/03/19 11:37:04;;;;;;;20.65;16.25;;;;;;;;;;5132066;27;20118;-65
2023/03/19 11:39:45;;;;;;;21.73;16.52;;;;;;;;;;5134302;27;20054;-65
2023/03/19 11:42:14;;;;;;;20.40;16.60;;;;;;;;;;5129162;27;20047;-65
2023/03/19 11:44:59;;;;;;;24.88;19.30;;;;;;;;;;5123236;27;20078;-66
2023/03/19 11:47:33;;;;;;;27.48;20.40;;;;;;;;;;5135416;27;20096;-65
2023/03/19 11:50:18;;;;;;;23.65;17.45;;;;;;;;;;5134627;27;20049;-65
2023/03/19 11:52:44;;;;;;;20.52;15.18;;;;;;;;;;5133557;27;20810;-66
2023/03/19 11:55:20;;;;;;;20.45;15.90;;;;;;;;;;5132137;27;20065;-65
2023/03/19 11:57:56;;;;;;;23.92;18.35;;;;;;;;;;5136886;27;20583;-65
2023/03/19 12:00:30;;;;;;;22.98;16.08;;;;;;;;;;5129503;27;20031;-65
2023/03/19 12:02:59;;;;;;;19.77;15.00;;;;;;;;;;5113093;27;20046;-65
2023/03/19 12:05:32;;;;;;;19.92;15.10;;;;;;;;;;5136061;27;20193;-65
2023/03/19 12:07:58;;;;;;;22.77;16.38;;;;;;;;;;5133935;27;20058;-65
2023/03/19 12:10:28;;;;;;;23.52;17.70;;;;;;;;;;5133694;27;20043;-65
2023/03/19 12:13:10;;;;;;;22.83;16.70;;;;;;;;;;5138067;27;20111;-65
2023/03/19 12:15:46;;;;;;;22.50;16.63;;;;;;;;;;5143252;27;20058;-65
2023/03/19 12:18:21;;;;;;;26.70;18.40;;;;;;;;;;5130722;27;20438;-65
2023/03/19 12:20:50;;;;;;;21.00;16.02;;;;;;;;;;5137511;27;20408;-65
2023/03/19 12:23:21;;;;;;;23.65;16.02;;;;;;;;;;5134305;27;20067;-65
2023/03/19 12:26:05;;;;;;;23.27;16.33;;;;;;;;;;5133451;27;20083;-65
2023/03/19 12:28:43;;;;;;;19.40;14.60;;;;;;;;;;5133030;27;20051;-65
2023/03/19 12:31:15;;;;;;;21.85;15.50;;;;;;;;;;5137762;27;20149;-65
2023/03/19 12:33:51;;;;;;;25.02;17.27;;;;;;;;;;5128046;27;20100;-65
2023/03/19 12:36:21;;;;;;;27.45;17.95;;;;;;;;;;5142484;27;20035;-65
2023/03/19 12:38:54;;;;;;;23.25;16.90;;;;;;;;;;5128046;27;20093;-65
2023/03/19 12:41:23;;;;;;;30.13;19.25;;;;;;;;;;5127423;27;20047;-65
2023/03/19 12:43:56;;;;;;;29.52;19.98;;;;;;;;;;5147942;27;20042;-65
2023/03/19 12:46:31;;;;;;;25.95;18.17;;;;;;;;;;5131252;27;20485;-65
2023/03/19 12:49:09;;;;;;;25.88;18.98;;;;;;;;;;5135065;27;20074;-65
2023/03/19 12:51:38;;;;;;;27.70;18.70;;;;;;;;;;5139844;27;20042;-65
2023/03/19 12:54:16;;;;;;;24.13;16.60;;;;;;;;;;5142628;27;20393;-65
2023/03/19 12:56:54;;;;;;;23.77;15.32;;;;;;;;;;5144376;27;20039;-65
2023/03/19 12:59:26;;;;;;;29.23;20.55;;;;;;;;;;5144685;27;20047;-65
2023/03/19 13:01:58;;;;;;;26.08;17.95;;;;;;;;;;5132062;27;20636;-64
2023/03/19 13:04:26;;;;;;;26.90;17.77;;;;;;;;;;5137613;27;20050;-67
2023/03/19 13:06:55;;;;;;;21.05;15.05;;;;;;;;;;5147143;27;20054;-65
2023/03/19 13:09:40;;;;;;;17.92;12.48;;;;;;;;;;5144199;27;20474;-64
2023/03/19 13:12:21;;;;;;;18.67;13.40;;;;;;;;;;5140781;27;20051;-65
2023/03/19 13:14:54;;;;;;;20.92;13.63;;;;;;;;;;5141209;27;20039;-66
2023/03/19 13:17:20;;;;;;;;;;;;;;;;;;5145741;27;20035;-65
2023/03/19 13:19:47;;;;;;;19.73;12.90;;;;;;;;;;5146873;27;19927;-65
2023/03/19 13:22:15;;;;;;;18.30;12.23;;;;;;;;;;5119695;27;20393;-65
2023/03/19 13:24:44;;;;;;;19.83;13.02;;;;;;;;;;5127380;27;20047;-65
2023/03/19 13:27:13;;;;;;;20.10;14.02;;;;;;;;;;5141254;27;20046;-65
2023/03/19 13:29:51;;;;;;;24.33;14.68;;;;;;;;;;5144145;27;20142;-65
2023/03/19 13:32:30;;;;;;;24.23;15.80;;;;;;;;;;5146414;27;20049;-65
2023/03/19 13:35:12;;;;;;;21.85;15.30;;;;;;;;;;5139582;27;20142;-64
2023/03/19 13:37:38;;;;;;;;;;;;;;;;;;5132864;27;20039;-65
2023/03/19 13:40:05;;;;;;;21.85;14.43;;;;;;;;;;5146963;27;19923;-64
2023/03/19 13:42:38;;;;;;;23.77;15.40;;;;;;;;;;5143819;27;20121;-65
2023/03/19 13:45:25;;;;;;;21.70;13.68;;;;;;;;;;5143593;27;20048;-65
2023/03/19 13:47:53;;;;;;;19.55;12.82;;;;;;;;;;5116830;27;20520;-65
2023/03/19 13:50:19;;;;;;;21.15;13.20;;;;;;;;;;5138775;27;20431;-65
2023/03/19 13:52:47;;;;;;;17.65;11.43;;;;;;;;;;5140808;27;20059;-65
2023/03/19 13:55:25;;;;;;;17.10;11.73;;;;;;;;;;5142793;27;20034;-65
2023/03/19 13:58:11;;;;;;;17.42;11.80;;;;;;;;;;5139877;27;20042;-65
2023/03/19 14:00:43;;;;;;;19.05;13.85;;;;;;;;;;5140521;27;20107;-65
2023/03/19 14:03:19;;;;;;;20.95;13.40;;;;;;;;;;5133920;27;20478;-65
2023/03/19 14:05:46;;;;;;;18.67;12.60;;;;;;;;;;5138077;27;20457;-64
2023/03/19 14:08:20;;;;;;;17.23;12.18;;;;;;;;;;5141204;27;20042;-64
2023/03/19 14:10:48;;;;;;;21.90;12.50;;;;;;;;;;5145747;27;20173;-65
2023/03/19 14:13:33;;;;;;;18.20;10.73;;;;;;;;;;5138943;27;20388;-65
2023/03/19 14:16:07;;;;;;;16.80;11.05;;;;;;;;;;5117020;27;20046;-64
2023/03/19 14:18:38;;;;;;;17.20;11.30;;;;;;;;;;5141912;27;20228;-64
2023/03/19 14:21:05;;;;;;;19.02;11.85;;;;;;;;;;5131555;27;20684;-64
2023/03/19 14:23:36;;;;;;;20.73;13.02;;;;;;;;;;5142539;27;20074;-64
2023/03/19 14:26:21;;;;;;;21.48;14.80;;;;;;;;;;5144026;27;20214;-64
2023/03/19 14:28:58;;;;;;;21.30;13.95;;;;;;;;;;5144125;27;20042;-64
2023/03/19 14:31:33;;;;;;;21.85;13.65;;;;;;;;;;5141289;27;20031;-64
2023/03/19 14:34:05;;;;;;;20.52;14.05;;;;;;;;;;5138882;27;20035;-64
2023/03/19 14:36:35;;;;;;;22.13;13.60;;;;;;;;;;5143712;27;20053;-64
2023/03/19 14:39:12;;;;;;;22.25;13.73;;;;;;;;;;5144347;27;20059;-64